createdAt,value
2022-11-05T00:01:14.456Z,14.79
2022-11-05T00:03:04.534Z,14.84
2022-11-05T00:04:54.790Z,14.92
2022-11-05T00:06:44.885Z,14.96
2022-11-05T00:08:35.266Z,14.97
2022-11-05T00:10:18.990Z,15.00
2022-11-05T00:12:09.125Z,15.05
2022-11-05T00:13:59.262Z,15.09
2022-11-05T00:15:49.269Z,15.09
2022-11-05T00:17:21.129Z,15.12
2022-11-05T00:19:07.608Z,15.17
2022-11-05T00:20:39.134Z,15.20
2022-11-05T00:22:29.886Z,15.23
2022-11-05T00:24:24.138Z,15.27
2022-11-05T00:25:56.020Z,15.31
2022-11-05T00:27:27.545Z,15.33
2022-11-05T00:28:59.824Z,15.36
2022-11-05T00:30:31.781Z,15.40
2022-11-05T00:32:03.961Z,15.39
2022-11-05T00:33:35.961Z,15.40
2022-11-05T00:35:07.995Z,15.39
2022-11-05T00:36:39.594Z,15.39
2022-11-05T00:38:11.320Z,15.38
2022-11-05T00:39:44.433Z,15.38
2022-11-05T00:41:16.052Z,15.37
2022-11-05T00:43:06.498Z,15.34
2022-11-05T00:44:56.572Z,15.31
2022-11-05T00:46:28.282Z,15.23
2022-11-05T00:48:18.477Z,15.23
2022-11-05T00:49:50.093Z,15.17
2022-11-05T00:51:21.935Z,15.14
2022-11-05T00:52:56.971Z,15.12
2022-11-05T00:54:29.177Z,15.11
2022-11-05T00:56:01.264Z,15.10
2022-11-05T00:57:33.207Z,15.11
2022-11-05T00:59:05.084Z,15.14
2022-11-05T01:00:38.017Z,15.15
2022-11-05T01:02:09.650Z,15.17
2022-11-05T01:03:41.348Z,15.13
2022-11-05T01:05:13.208Z,15.07
2022-11-05T01:06:44.861Z,15.00
2022-11-05T01:08:16.842Z,14.94
2022-11-05T01:09:48.600Z,14.85
2022-11-05T01:11:37.289Z,14.78
2022-11-05T01:13:13.024Z,14.70
2022-11-05T01:14:45.138Z,14.65
2022-11-05T01:16:16.796Z,14.63
2022-11-05T01:17:48.520Z,14.67
2022-11-05T01:19:20.213Z,14.66
2022-11-05T01:20:51.822Z,14.70
2022-11-05T01:22:23.540Z,14.68
2022-11-05T01:23:55.129Z,14.64
2022-11-05T01:25:27.130Z,14.63
2022-11-05T01:26:58.948Z,14.63
2022-11-05T01:28:31.228Z,14.64
2022-11-05T01:30:03.707Z,14.63
2022-11-05T01:31:35.819Z,14.63
2022-11-05T01:33:08.127Z,14.62
2022-11-05T01:34:39.856Z,14.63
2022-11-05T01:36:11.484Z,14.61
2022-11-05T01:37:43.152Z,14.61
2022-11-05T01:39:14.701Z,14.56
2022-11-05T01:40:46.452Z,14.51
2022-11-05T01:42:22.087Z,14.48
2022-11-05T01:43:57.490Z,14.44
2022-11-05T01:45:29.169Z,14.38
2022-11-05T01:47:00.887Z,14.32
2022-11-05T01:48:33.871Z,14.28
2022-11-05T01:50:07.578Z,14.20
2022-11-05T01:51:39.262Z,14.15
2022-11-05T01:53:26.076Z,14.14
2022-11-05T01:54:57.602Z,14.12
2022-11-05T01:56:39.341Z,14.11
2022-11-05T01:58:11.824Z,14.13
2022-11-05T01:59:44.678Z,14.17
2022-11-05T02:01:16.515Z,14.22
2022-11-05T02:02:48.270Z,14.27
2022-11-05T02:04:33.039Z,14.32
2022-11-05T02:06:04.906Z,14.41
2022-11-05T02:07:36.429Z,14.48
2022-11-05T02:09:12.713Z,14.53
2022-11-05T02:10:44.547Z,14.56
2022-11-05T02:12:16.338Z,14.58
2022-11-05T02:13:48.842Z,14.58
2022-11-05T02:15:47.286Z,14.59
2022-11-05T02:17:19.235Z,14.60
2022-11-05T02:18:57.234Z,14.59
2022-11-05T02:20:32.177Z,14.58
2022-11-05T02:22:06.669Z,14.60
2022-11-05T02:23:38.294Z,14.60
2022-11-05T02:25:09.805Z,14.59
2022-11-05T02:26:44.634Z,14.57
2022-11-05T02:28:34.585Z,14.53
2022-11-05T02:30:09.370Z,14.50
2022-11-05T02:32:01.532Z,14.48
2022-11-05T02:33:36.064Z,14.46
2022-11-05T02:35:16.313Z,14.45
2022-11-05T02:36:51.386Z,14.43
2022-11-05T02:38:22.952Z,14.41
2022-11-05T02:40:06.885Z,14.41
2022-11-05T02:41:47.651Z,14.39
2022-11-05T02:43:28.692Z,14.36
2022-11-05T02:45:00.308Z,14.33
2022-11-05T02:46:50.353Z,14.30
2022-11-05T02:48:23.832Z,14.30
2022-11-05T02:49:55.786Z,14.26
2022-11-05T02:51:30.905Z,14.17
2022-11-05T02:53:04.858Z,14.06
2022-11-05T02:54:39.822Z,13.97
2022-11-05T02:56:15.864Z,13.92
2022-11-05T02:57:47.489Z,13.89
2022-11-05T02:59:19.058Z,13.85
2022-11-05T03:00:57.323Z,13.84
2022-11-05T03:02:28.952Z,13.86
2022-11-05T03:04:01.217Z,13.86
2022-11-05T03:05:48.694Z,13.87
2022-11-05T03:07:20.385Z,13.85
2022-11-05T03:08:58.260Z,13.87
2022-11-05T03:10:34.289Z,13.85
2022-11-05T03:12:05.897Z,13.83
2022-11-05T03:13:44.696Z,13.76
2022-11-05T03:15:19.738Z,13.73
2022-11-05T03:17:09.856Z,13.68
2022-11-05T03:19:01.368Z,13.71
2022-11-05T03:21:05.163Z,13.67
2022-11-05T03:22:37.631Z,13.60
2022-11-05T03:24:11.089Z,13.63
2022-11-05T03:25:44.008Z,13.69
2022-11-05T03:27:16.066Z,13.74
2022-11-05T03:28:48.550Z,13.80
2022-11-05T03:30:20.195Z,13.83
2022-11-05T03:31:52.532Z,13.85
2022-11-05T03:33:28.141Z,13.87
2022-11-05T03:35:03.772Z,13.88
2022-11-05T03:36:41.711Z,13.88
2022-11-05T03:38:18.219Z,13.93
2022-11-05T03:39:51.237Z,13.95
2022-11-05T03:41:23.191Z,13.92
2022-11-05T03:42:55.578Z,13.91
2022-11-05T03:44:30.938Z,13.92
2022-11-05T03:46:03.509Z,13.94
2022-11-05T03:47:36.663Z,13.89
2022-11-05T03:49:08.572Z,13.82
2022-11-05T03:50:45.333Z,13.73
2022-11-05T03:52:17.693Z,13.64
2022-11-05T03:53:50.484Z,13.64
2022-11-05T03:55:26.332Z,13.66
2022-11-05T03:56:57.943Z,13.63
2022-11-05T03:58:29.862Z,13.63
2022-11-05T04:00:01.600Z,13.62
2022-11-05T04:01:33.465Z,13.67
2022-11-05T04:03:05.245Z,13.68
2022-11-05T04:04:36.944Z,13.66
2022-11-05T04:06:27.428Z,13.68
2022-11-05T04:08:17.400Z,13.66
2022-11-05T04:10:07.331Z,13.65
2022-11-05T04:11:57.282Z,13.65
2022-11-05T04:13:29.380Z,13.67
2022-11-05T04:15:01.093Z,13.67
2022-11-05T04:16:51.270Z,13.70
2022-11-05T04:18:23.084Z,13.71
2022-11-05T04:20:13.125Z,13.71
2022-11-05T04:22:03.624Z,13.73
2022-11-05T04:23:53.647Z,13.71
2022-11-05T04:25:25.261Z,13.71
2022-11-05T04:26:56.886Z,13.71
2022-11-05T04:28:48.367Z,13.67
2022-11-05T04:30:20.443Z,13.66
2022-11-05T04:31:52.360Z,13.73
2022-11-05T04:33:23.963Z,13.75
2022-11-05T04:34:55.579Z,13.74
2022-11-05T04:36:27.242Z,13.75
2022-11-05T04:37:59.001Z,13.72
2022-11-05T04:39:30.658Z,13.70
2022-11-05T04:41:15.100Z,13.67
2022-11-05T04:42:46.745Z,13.64
2022-11-05T04:44:18.443Z,13.62
2022-11-05T04:45:50.135Z,13.64
2022-11-05T04:47:22.018Z,13.65
2022-11-05T04:48:53.552Z,13.64
2022-11-05T04:50:25.054Z,13.67
2022-11-05T04:51:56.586Z,13.68
2022-11-05T04:53:28.216Z,13.68
2022-11-05T04:54:59.927Z,13.67
2022-11-05T04:56:31.463Z,13.67
2022-11-05T04:58:02.998Z,13.66
2022-11-05T04:59:34.667Z,13.64
2022-11-05T05:01:06.405Z,13.61
2022-11-05T05:02:37.971Z,13.60
2022-11-05T05:04:09.525Z,13.58
2022-11-05T05:05:41.112Z,13.53
2022-11-05T05:07:12.727Z,13.47
2022-11-05T05:08:44.490Z,13.40
2022-11-05T05:10:16.078Z,13.36
2022-11-05T05:11:47.638Z,13.34
2022-11-05T05:13:19.144Z,13.32
2022-11-05T05:14:50.791Z,13.31
2022-11-05T05:16:23.277Z,13.31
2022-11-05T05:17:55.091Z,13.28
2022-11-05T05:19:26.820Z,13.27
2022-11-05T05:21:17.209Z,13.26
2022-11-05T05:22:53.026Z,13.32
2022-11-05T05:24:25.161Z,13.37
2022-11-05T05:25:58.489Z,13.39
2022-11-05T05:27:30.350Z,13.36
2022-11-05T05:29:02.027Z,13.33
2022-11-05T05:30:33.565Z,13.33
2022-11-05T05:32:06.064Z,13.35
2022-11-05T05:33:37.683Z,13.37
2022-11-05T05:35:09.640Z,13.39
2022-11-05T05:36:41.163Z,13.47
2022-11-05T05:38:12.950Z,13.57
2022-11-05T05:39:45.092Z,13.66
2022-11-05T05:41:16.731Z,13.72
2022-11-05T05:42:48.540Z,13.78
2022-11-05T05:44:20.181Z,13.80
2022-11-05T05:45:52.265Z,13.81
2022-11-05T05:47:24.330Z,13.89
2022-11-05T05:48:56.111Z,13.93
2022-11-05T05:50:27.792Z,13.96
2022-11-05T05:51:59.557Z,14.04
2022-11-05T05:53:31.354Z,14.10
2022-11-05T05:55:03.149Z,14.06
2022-11-05T05:56:34.966Z,14.10
2022-11-05T05:58:06.839Z,14.08
2022-11-05T05:59:38.357Z,14.06
2022-11-05T06:01:17.275Z,14.12
2022-11-05T06:02:50.608Z,14.23
2022-11-05T06:04:22.402Z,14.23
2022-11-05T06:05:54.005Z,14.26
2022-11-05T06:07:25.716Z,14.27
2022-11-05T06:08:57.321Z,14.29
2022-11-05T06:10:29.012Z,14.33
2022-11-05T06:12:00.962Z,14.37
2022-11-05T06:13:33.848Z,14.42
2022-11-05T06:15:06.394Z,14.48
2022-11-05T06:16:39.231Z,14.53
2022-11-05T06:18:11.920Z,14.59
2022-11-05T06:19:44.453Z,14.67
2022-11-05T06:21:17.407Z,14.75
2022-11-05T06:22:58.123Z,14.89
2022-11-05T06:24:29.987Z,15.05
2022-11-05T06:26:02.068Z,15.21
2022-11-05T06:27:33.981Z,15.29
2022-11-05T06:29:05.685Z,15.35
2022-11-05T06:30:38.048Z,15.40
2022-11-05T06:32:09.686Z,15.48
2022-11-05T06:33:41.390Z,15.56
2022-11-05T06:35:13.661Z,15.65
2022-11-05T06:36:45.368Z,15.77
2022-11-05T06:38:17.019Z,15.93
2022-11-05T06:39:48.769Z,16.09
2022-11-05T06:41:20.545Z,16.17
2022-11-05T06:42:53.270Z,16.22
2022-11-05T06:44:24.997Z,16.32
2022-11-05T06:45:57.611Z,16.40
2022-11-05T06:47:29.493Z,16.52
2022-11-05T06:49:01.609Z,16.64
2022-11-05T06:50:33.353Z,16.75
2022-11-05T06:52:05.754Z,16.85
2022-11-05T06:53:37.457Z,16.93
2022-11-05T06:55:09.504Z,17.00
2022-11-05T06:56:41.137Z,17.13
2022-11-05T06:58:13.249Z,17.23
2022-11-05T06:59:45.046Z,17.30
2022-11-05T07:01:16.881Z,17.43
2022-11-05T07:02:48.862Z,17.56
2022-11-05T07:04:20.703Z,17.69
2022-11-05T07:05:52.609Z,17.81
2022-11-05T07:07:24.326Z,17.89
2022-11-05T07:08:56.263Z,18.00
2022-11-05T07:10:28.518Z,18.16
2022-11-05T07:12:00.799Z,18.29
2022-11-05T07:13:32.548Z,18.38
2022-11-05T07:15:04.686Z,18.46
2022-11-05T07:16:36.666Z,18.54
2022-11-05T07:18:08.787Z,18.59
2022-11-05T07:19:41.125Z,18.62
2022-11-05T07:21:15.765Z,18.56
2022-11-05T07:22:47.438Z,18.54
2022-11-05T07:24:19.078Z,18.52
2022-11-05T07:25:51.210Z,18.54
2022-11-05T07:27:22.944Z,18.58
2022-11-05T07:28:55.409Z,18.69
2022-11-05T07:30:27.147Z,18.73
2022-11-05T07:31:59.041Z,18.71
2022-11-05T07:33:36.160Z,18.65
2022-11-05T07:35:08.916Z,18.67
2022-11-05T07:36:40.780Z,18.77
2022-11-05T07:38:13.117Z,18.76
2022-11-05T07:39:44.927Z,18.78
2022-11-05T07:41:16.800Z,18.90
2022-11-05T07:42:55.133Z,19.01
2022-11-05T07:44:26.787Z,18.96
2022-11-05T07:45:58.708Z,19.05
2022-11-05T07:47:30.442Z,19.05
2022-11-05T07:49:02.600Z,19.13
2022-11-05T07:50:35.144Z,19.22
2022-11-05T07:52:06.794Z,19.20
2022-11-05T07:53:43.956Z,19.16
2022-11-05T07:55:17.030Z,19.23
2022-11-05T07:56:48.695Z,19.36
2022-11-05T07:58:20.464Z,19.44
2022-11-05T07:59:52.259Z,19.56
2022-11-05T08:01:23.985Z,19.55
2022-11-05T08:03:07.227Z,19.69
2022-11-05T08:04:42.655Z,19.84
2022-11-05T08:06:14.337Z,19.83
2022-11-05T08:07:46.397Z,19.77
2022-11-05T08:09:18.218Z,19.71
2022-11-05T08:10:49.834Z,19.67
2022-11-05T08:12:21.532Z,19.70
2022-11-05T08:13:53.214Z,19.67
2022-11-05T08:15:24.767Z,19.65
2022-11-05T08:16:57.433Z,19.64
2022-11-05T08:18:32.165Z,19.57
2022-11-05T08:20:03.883Z,19.51
2022-11-05T08:21:35.469Z,19.44
2022-11-05T08:23:07.132Z,19.27
2022-11-05T08:24:38.941Z,19.29
2022-11-05T08:26:10.776Z,19.32
2022-11-05T08:27:42.688Z,19.30
2022-11-05T08:29:14.471Z,19.37
2022-11-05T08:30:48.842Z,19.46
2022-11-05T08:32:20.451Z,19.49
2022-11-05T08:33:52.205Z,19.47
2022-11-05T08:35:23.814Z,19.41
2022-11-05T08:36:55.527Z,19.20
2022-11-05T08:38:27.375Z,19.13
2022-11-05T08:39:59.243Z,18.99
2022-11-05T08:41:30.917Z,18.85
2022-11-05T08:43:03.746Z,18.88
2022-11-05T08:44:35.438Z,18.92
2022-11-05T08:46:07.255Z,18.85
2022-11-05T08:47:38.957Z,18.74
2022-11-05T08:49:10.854Z,18.61
2022-11-05T08:50:42.767Z,18.54
2022-11-05T08:52:14.707Z,18.46
2022-11-05T08:53:46.396Z,18.43
2022-11-05T08:55:19.825Z,18.45
2022-11-05T08:56:51.516Z,18.43
2022-11-05T08:58:23.258Z,18.41
2022-11-05T08:59:54.910Z,18.41
2022-11-05T09:01:26.832Z,18.47
2022-11-05T09:02:59.991Z,18.55
2022-11-05T09:04:31.634Z,18.61
2022-11-05T09:06:03.537Z,18.60
2022-11-05T09:07:35.214Z,18.59
2022-11-05T09:09:06.951Z,18.50
2022-11-05T09:10:38.750Z,18.47
2022-11-05T09:12:12.714Z,18.47
2022-11-05T09:13:44.906Z,18.37
2022-11-05T09:15:16.541Z,18.26
2022-11-05T09:16:48.224Z,18.28
2022-11-05T09:18:20.569Z,18.33
2022-11-05T09:19:52.127Z,18.38
2022-11-05T09:21:23.823Z,18.38
2022-11-05T09:22:55.834Z,18.39
2022-11-05T09:24:27.673Z,18.42
2022-11-05T09:26:00.083Z,18.34
2022-11-05T09:27:31.964Z,18.33
2022-11-05T09:29:03.491Z,18.35
2022-11-05T09:30:35.094Z,18.30
2022-11-05T09:34:40.038Z,18.18
2022-11-05T09:36:11.857Z,18.14
2022-11-05T09:37:43.503Z,18.15
2022-11-05T09:39:15.341Z,18.18
2022-11-05T09:40:47.216Z,18.17
2022-11-05T09:42:19.092Z,18.17
2022-11-05T09:43:52.101Z,18.12
2022-11-05T09:45:24.668Z,18.12
2022-11-05T09:47:00.049Z,18.31
2022-11-05T09:48:32.051Z,18.42
2022-11-05T09:50:05.907Z,18.54
2022-11-05T09:51:37.747Z,18.73
2022-11-05T09:53:11.496Z,18.83
2022-11-05T09:54:44.231Z,18.84
2022-11-05T09:56:23.830Z,18.85
2022-11-05T09:57:57.691Z,18.81
2022-11-05T09:59:38.580Z,18.81
2022-11-05T10:01:20.079Z,18.83
2022-11-05T10:02:53.615Z,18.86
2022-11-05T10:04:26.429Z,18.96
2022-11-05T10:06:00.112Z,19.07
2022-11-05T10:07:33.055Z,19.12
2022-11-05T10:09:09.537Z,19.19
2022-11-05T10:10:51.362Z,19.30
2022-11-05T10:12:40.931Z,19.41
2022-11-05T10:14:21.135Z,19.55
2022-11-05T10:16:14.325Z,19.58
2022-11-05T10:17:47.516Z,19.60
2022-11-05T10:19:26.257Z,19.56
2022-11-05T10:20:58.242Z,19.58
2022-11-05T10:22:29.720Z,19.60
2022-11-05T10:24:01.338Z,19.66
2022-11-05T10:25:33.539Z,19.71
2022-11-05T10:27:05.162Z,19.75
2022-11-05T10:28:37.070Z,19.81
2022-11-05T10:30:10.802Z,19.84
2022-11-05T10:31:42.460Z,19.84
2022-11-05T10:33:15.584Z,19.85
2022-11-05T10:34:47.097Z,19.87
2022-11-05T10:36:34.325Z,19.91
2022-11-05T10:38:06.164Z,19.96
2022-11-05T10:39:37.709Z,19.92
2022-11-05T10:41:15.773Z,19.98
2022-11-05T10:42:51.840Z,20.07
2022-11-05T10:44:35.252Z,20.14
2022-11-05T10:46:06.820Z,20.21
2022-11-05T10:47:57.366Z,20.24
2022-11-05T10:49:47.174Z,20.26
2022-11-05T10:51:18.958Z,20.24
2022-11-05T10:53:19.865Z,20.34
2022-11-05T10:54:52.525Z,20.40
2022-11-05T10:56:30.107Z,20.41
2022-11-05T10:58:10.275Z,20.43
2022-11-05T10:59:42.345Z,20.55
2022-11-05T11:01:13.964Z,20.64
2022-11-05T11:02:50.151Z,20.67
2022-11-05T11:04:23.191Z,20.70
2022-11-05T11:05:58.673Z,20.67
2022-11-05T11:07:30.469Z,20.66
2022-11-05T11:09:02.828Z,20.74
2022-11-05T11:10:40.333Z,20.66
2022-11-05T11:12:16.180Z,20.63
2022-11-05T11:13:58.848Z,20.63
2022-11-05T11:15:32.918Z,20.67
2022-11-05T11:17:23.744Z,20.72
2022-11-05T11:19:00.473Z,20.74
2022-11-05T11:20:32.289Z,20.61
2022-11-05T11:22:04.039Z,20.58
2022-11-05T11:23:42.354Z,20.57
2022-11-05T11:25:26.690Z,20.57
2022-11-05T11:27:04.748Z,20.51
2022-11-05T11:28:37.969Z,20.54
2022-11-05T11:30:16.046Z,20.57
2022-11-05T11:31:47.549Z,20.63
2022-11-05T11:33:21.214Z,20.69
2022-11-05T11:34:53.230Z,20.73
2022-11-05T11:36:25.417Z,20.77
2022-11-05T11:37:57.238Z,20.79
2022-11-05T11:39:29.231Z,20.73
2022-11-05T11:41:01.943Z,20.65
2022-11-05T11:42:34.577Z,20.64
2022-11-05T11:44:08.181Z,20.65
2022-11-05T11:45:47.111Z,20.64
2022-11-05T11:47:19.348Z,20.68
2022-11-05T11:48:51.495Z,20.72
2022-11-05T11:50:44.708Z,20.72
2022-11-05T11:52:24.702Z,20.56
2022-11-05T11:53:56.810Z,20.52
2022-11-05T11:55:28.381Z,20.49
2022-11-05T11:56:59.899Z,20.45
2022-11-05T11:58:41.971Z,20.43
2022-11-05T12:00:13.890Z,20.47
2022-11-05T12:01:49.762Z,20.56
2022-11-05T12:03:21.639Z,20.55
2022-11-05T12:05:06.372Z,20.52
2022-11-05T12:06:56.800Z,20.44
2022-11-05T12:08:31.792Z,20.36
2022-11-05T12:10:09.461Z,20.26
2022-11-05T12:11:46.807Z,20.16
2022-11-05T12:13:21.252Z,20.07
2022-11-05T12:14:57.835Z,19.98
2022-11-05T12:16:29.546Z,19.86
2022-11-05T12:18:02.791Z,19.78
2022-11-05T12:19:49.896Z,19.77
2022-11-05T12:21:48.052Z,19.75
2022-11-05T12:23:31.461Z,19.78
2022-11-05T12:25:18.262Z,19.79
2022-11-05T12:27:11.195Z,19.75
2022-11-05T12:30:53.120Z,19.79
2022-11-05T12:32:43.465Z,19.84
2022-11-05T12:34:30.290Z,19.85
2022-11-05T12:36:04.741Z,19.86
2022-11-05T12:37:55.554Z,19.87
2022-11-05T12:39:27.239Z,19.89
2022-11-05T12:41:03.092Z,19.86
2022-11-05T12:42:53.167Z,19.88
2022-11-05T12:44:25.046Z,19.97
2022-11-05T12:46:08.976Z,20.02
2022-11-05T12:47:43.405Z,20.06
2022-11-05T12:49:21.396Z,20.07
2022-11-05T12:51:02.586Z,20.09
2022-11-05T12:52:34.277Z,20.00
2022-11-05T12:54:05.946Z,19.93
2022-11-05T12:55:47.084Z,19.90
2022-11-05T12:57:21.194Z,19.87
2022-11-05T12:58:57.365Z,19.86
2022-11-05T13:00:28.880Z,19.84
2022-11-05T13:02:03.426Z,19.83
2022-11-05T13:03:50.869Z,19.86
2022-11-05T13:05:34.736Z,19.79
2022-11-05T13:07:06.945Z,19.74
2022-11-05T13:08:42.121Z,19.68
2022-11-05T13:10:19.968Z,19.60
2022-11-05T13:11:53.013Z,19.55
2022-11-05T13:13:31.831Z,19.54
2022-11-05T13:15:05.317Z,19.49
2022-11-05T13:16:44.199Z,19.46
2022-11-05T13:18:18.411Z,19.35
2022-11-05T13:19:54.732Z,19.27
2022-11-05T13:21:26.533Z,19.18
2022-11-05T13:23:04.663Z,19.14
2022-11-05T13:24:40.856Z,19.15
2022-11-05T13:26:19.843Z,19.16
2022-11-05T13:28:10.380Z,19.21
2022-11-05T13:29:47.185Z,19.25
2022-11-05T13:31:20.325Z,19.24
2022-11-05T13:33:03.001Z,19.30
2022-11-05T13:34:37.599Z,19.33
2022-11-05T13:36:34.180Z,19.30
2022-11-05T13:38:25.676Z,19.26
2022-11-05T13:40:00.125Z,19.15
2022-11-05T13:41:41.067Z,19.12
2022-11-05T13:43:12.869Z,19.06
2022-11-05T13:44:44.664Z,18.97
2022-11-05T13:46:20.508Z,18.88
2022-11-05T13:48:30.620Z,18.82
2022-11-05T13:50:14.477Z,18.80
2022-11-05T13:51:46.092Z,18.80
2022-11-05T13:53:36.389Z,18.81
2022-11-05T13:55:13.968Z,18.76
2022-11-05T13:57:04.258Z,18.72
2022-11-05T13:58:55.035Z,18.72
2022-11-05T14:00:28.678Z,18.76
2022-11-05T14:02:05.625Z,18.76
2022-11-05T14:03:37.352Z,18.74
2022-11-05T14:05:20.101Z,18.73
2022-11-05T14:06:52.109Z,18.71
2022-11-05T14:08:27.868Z,18.72
2022-11-05T14:10:00.368Z,18.68
2022-11-05T14:11:38.727Z,18.69
2022-11-05T14:13:29.028Z,18.72
2022-11-05T14:15:17.597Z,18.71
2022-11-05T14:16:51.490Z,18.75
2022-11-05T14:18:42.403Z,18.81
2022-11-05T14:20:43.725Z,18.79
2022-11-05T14:22:33.627Z,18.72
2022-11-05T14:24:24.212Z,18.73
2022-11-05T14:25:56.062Z,18.76
2022-11-05T14:27:36.985Z,18.79
2022-11-05T14:29:20.620Z,18.79
2022-11-05T14:30:52.488Z,18.72
2022-11-05T14:32:25.140Z,18.65
2022-11-05T14:34:01.362Z,18.61
2022-11-05T14:35:36.861Z,18.57
2022-11-05T14:37:09.900Z,18.56
2022-11-05T14:39:08.114Z,18.56
2022-11-05T14:40:43.700Z,18.61
2022-11-05T14:42:15.252Z,18.63
2022-11-05T14:43:47.956Z,18.63
2022-11-05T14:45:25.866Z,18.65
2022-11-05T14:47:00.033Z,18.68
2022-11-05T14:48:48.001Z,18.68
2022-11-05T14:50:21.671Z,18.71
2022-11-05T14:51:54.411Z,18.70
2022-11-05T14:53:33.963Z,18.69
2022-11-05T14:55:05.738Z,18.70
2022-11-05T14:56:44.150Z,18.69
2022-11-05T14:58:26.187Z,18.72
2022-11-05T15:00:01.352Z,18.66
2022-11-05T15:01:35.757Z,18.61
2022-11-05T15:03:26.531Z,18.62
2022-11-05T15:05:16.928Z,18.59
2022-11-05T15:07:17.386Z,18.54
2022-11-05T15:08:48.935Z,18.43
2022-11-05T15:10:20.837Z,18.35
2022-11-05T15:11:57.599Z,18.29
2022-11-05T15:13:33.650Z,18.19
2022-11-05T15:15:18.819Z,18.17
2022-11-05T15:16:54.449Z,18.15
2022-11-05T15:18:40.350Z,18.17
2022-11-05T15:20:15.879Z,18.18
2022-11-05T15:21:47.815Z,18.17
2022-11-05T15:23:20.763Z,18.18
2022-11-05T15:24:52.481Z,18.18
2022-11-05T15:26:24.249Z,18.17
2022-11-05T15:27:56.149Z,18.16
2022-11-05T15:29:28.855Z,18.12
2022-11-05T15:31:08.968Z,18.01
2022-11-05T15:32:41.292Z,17.93
2022-11-05T15:34:19.300Z,17.89
2022-11-05T15:35:50.925Z,17.85
2022-11-05T15:37:24.489Z,17.82
2022-11-05T15:39:27.452Z,17.77
2022-11-05T15:40:47.907Z,17.73
2022-11-05T15:42:23.417Z,17.65
2022-11-05T15:43:54.967Z,17.55
2022-11-05T15:45:26.563Z,17.50
2022-11-05T15:47:08.206Z,17.47
2022-11-05T15:48:39.903Z,17.45
2022-11-05T15:50:15.107Z,17.35
2022-11-05T15:51:50.109Z,17.24
2022-11-05T15:53:51.537Z,17.20
2022-11-05T15:55:27.741Z,17.14
2022-11-05T15:56:59.373Z,17.10
2022-11-05T15:58:31.623Z,17.07
2022-11-05T16:00:04.945Z,17.00
2022-11-05T16:01:37.411Z,16.92
2022-11-05T16:03:27.888Z,16.84
2022-11-05T16:04:59.529Z,16.73
2022-11-05T16:06:39.613Z,16.63
2022-11-05T16:08:12.462Z,16.52
2022-11-05T16:09:50.494Z,16.42
2022-11-05T16:11:23.449Z,16.33
2022-11-05T16:12:55.019Z,16.26
2022-11-05T16:14:26.801Z,16.21
2022-11-05T16:15:59.669Z,16.20
2022-11-05T16:17:32.527Z,16.20
2022-11-05T16:19:24.039Z,16.20
2022-11-05T16:21:02.954Z,16.19
2022-11-05T16:22:47.563Z,16.20
2022-11-05T16:24:28.147Z,16.23
2022-11-05T16:26:01.136Z,16.32
2022-11-05T16:27:32.731Z,16.37
2022-11-05T16:29:12.403Z,16.38
2022-11-05T16:30:52.020Z,16.36
2022-11-05T16:32:29.887Z,16.26
2022-11-05T16:34:03.543Z,16.20
2022-11-05T16:35:35.207Z,16.17
2022-11-05T16:37:07.413Z,16.11
2022-11-05T16:38:39.093Z,16.07
2022-11-05T16:40:21.042Z,16.06
2022-11-05T16:41:52.653Z,16.00
2022-11-05T16:43:25.102Z,15.93
2022-11-05T16:44:57.049Z,15.87
2022-11-05T16:46:29.133Z,15.80
2022-11-05T16:48:00.730Z,15.79
2022-11-05T16:49:32.524Z,15.80
2022-11-05T16:51:04.747Z,15.77
2022-11-05T16:52:36.927Z,15.75
2022-11-05T16:54:09.066Z,15.78
2022-11-05T16:55:41.363Z,15.80
2022-11-05T16:57:26.962Z,15.80
2022-11-05T16:58:58.570Z,15.79
2022-11-05T17:00:30.179Z,15.79
2022-11-05T17:02:02.248Z,15.80
2022-11-05T17:03:34.225Z,15.81
2022-11-05T17:05:07.804Z,15.82
2022-11-05T17:06:41.035Z,15.82
2022-11-05T17:08:14.531Z,15.83
2022-11-05T17:09:48.799Z,15.85
2022-11-05T17:11:20.907Z,15.81
2022-11-05T17:12:52.654Z,15.80
2022-11-05T17:14:24.728Z,15.78
2022-11-05T17:15:56.674Z,15.70
2022-11-05T17:17:29.533Z,15.61
2022-11-05T17:19:01.492Z,15.55
2022-11-05T17:20:40.786Z,15.52
2022-11-05T17:22:12.921Z,15.48
2022-11-05T17:23:44.939Z,15.46
2022-11-05T17:25:16.777Z,15.45
2022-11-05T17:26:48.649Z,15.45
2022-11-05T17:28:20.648Z,15.44
2022-11-05T17:29:53.053Z,15.43
2022-11-05T17:31:25.021Z,15.45
2022-11-05T17:32:56.901Z,15.44
2022-11-05T17:34:29.141Z,15.44
2022-11-05T17:36:01.091Z,15.43
2022-11-05T17:37:33.820Z,15.40
2022-11-05T17:39:05.844Z,15.39
2022-11-05T17:40:37.741Z,15.40
2022-11-05T17:42:09.845Z,15.41
2022-11-05T17:43:41.922Z,15.48
2022-11-05T17:45:13.635Z,15.52
2022-11-05T17:46:45.267Z,15.56
2022-11-05T17:48:17.102Z,15.59
2022-11-05T17:49:49.092Z,15.60
2022-11-05T17:51:21.195Z,15.66
2022-11-05T17:52:52.946Z,15.71
2022-11-05T17:54:24.719Z,15.75
2022-11-05T17:55:56.759Z,15.76
2022-11-05T17:57:28.676Z,15.77
2022-11-05T17:59:00.816Z,15.75
2022-11-05T18:00:32.447Z,15.77
2022-11-05T18:02:04.283Z,15.76
2022-11-05T18:03:36.444Z,15.74
2022-11-05T18:05:08.339Z,15.69
2022-11-05T18:06:40.375Z,15.71
2022-11-05T18:08:12.719Z,15.67
2022-11-05T18:09:44.287Z,15.66
2022-11-05T18:11:15.915Z,15.66
2022-11-05T18:12:48.138Z,15.66
2022-11-05T18:14:23.842Z,15.68
2022-11-05T18:15:56.332Z,15.62
2022-11-05T18:17:27.957Z,15.57
2022-11-05T18:18:59.640Z,15.51
2022-11-05T18:20:31.520Z,15.45
2022-11-05T18:22:03.246Z,15.42
2022-11-05T18:23:35.012Z,15.35
2022-11-05T18:25:06.909Z,15.32
2022-11-05T18:26:38.671Z,15.31
2022-11-05T18:28:10.772Z,15.34
2022-11-05T18:29:42.581Z,15.33
2022-11-05T18:31:18.678Z,15.32
2022-11-05T18:32:51.314Z,15.31
2022-11-05T18:34:23.058Z,15.23
2022-11-05T18:35:54.627Z,15.24
2022-11-05T18:37:26.493Z,15.26
2022-11-05T18:38:58.794Z,15.28
2022-11-05T18:40:31.078Z,15.32
2022-11-05T18:42:02.697Z,15.33
2022-11-05T18:43:34.767Z,15.35
2022-11-05T18:45:07.104Z,15.29
2022-11-05T18:48:31.115Z,15.17
2022-11-05T18:50:03.182Z,15.13
2022-11-05T18:51:37.941Z,15.10
2022-11-05T18:53:09.586Z,15.12
2022-11-05T18:54:41.297Z,15.13
2022-11-05T18:56:14.749Z,15.14
2022-11-05T18:57:46.557Z,15.09
2022-11-05T19:01:16.669Z,15.06
2022-11-05T19:02:48.537Z,15.03
2022-11-05T19:04:20.297Z,15.03
2022-11-05T19:05:52.028Z,15.05
2022-11-05T19:07:24.045Z,15.11
2022-11-05T19:08:56.509Z,15.13
2022-11-05T19:10:29.106Z,15.12
2022-11-05T19:12:01.299Z,15.17
2022-11-05T19:13:33.119Z,15.19
2022-11-05T19:15:05.142Z,15.17
2022-11-05T19:16:36.979Z,15.14
2022-11-05T19:18:09.046Z,15.13
2022-11-05T19:19:41.134Z,15.11
2022-11-05T19:21:19.881Z,15.09
2022-11-05T19:22:51.685Z,15.06
2022-11-05T19:24:23.474Z,15.05
2022-11-05T19:25:55.716Z,15.03
2022-11-05T19:27:27.470Z,15.00
2022-11-05T19:29:00.306Z,15.00
2022-11-05T19:30:32.029Z,15.00
2022-11-05T19:32:03.835Z,14.97
2022-11-05T19:33:35.908Z,14.96
2022-11-05T19:35:07.840Z,14.95
2022-11-05T19:36:40.050Z,14.88
2022-11-05T19:38:11.949Z,14.85
2022-11-05T19:39:44.206Z,14.82
2022-11-05T19:41:16.187Z,14.81
2022-11-05T19:42:47.965Z,14.78
2022-11-05T19:44:19.650Z,14.81
2022-11-05T19:45:51.211Z,14.81
2022-11-05T19:47:23.246Z,14.82
2022-11-05T19:48:55.110Z,14.84
2022-11-05T19:50:27.188Z,14.84
2022-11-05T19:51:59.350Z,14.86
2022-11-05T19:53:30.982Z,14.87
2022-11-05T19:55:05.598Z,14.89
2022-11-05T19:56:41.270Z,14.92
2022-11-05T19:58:13.459Z,14.97
2022-11-05T19:59:45.638Z,15.01
2022-11-05T20:01:17.986Z,15.04
2022-11-05T20:02:50.487Z,15.07
2022-11-05T20:04:22.420Z,15.13
2022-11-05T20:05:54.138Z,15.13
2022-11-05T20:07:26.147Z,15.10
2022-11-05T20:10:53.675Z,15.00
2022-11-05T20:12:25.798Z,14.89
2022-11-05T20:13:57.929Z,14.84
2022-11-05T20:15:29.716Z,14.79
2022-11-05T20:17:01.336Z,14.76
2022-11-05T20:18:33.135Z,14.75
2022-11-05T20:20:06.290Z,14.74
2022-11-05T20:21:38.255Z,14.69
2022-11-05T20:23:09.963Z,14.63
2022-11-05T20:24:44.546Z,14.60
2022-11-05T20:26:16.370Z,14.57
2022-11-05T20:27:48.030Z,14.55
2022-11-05T20:29:19.643Z,14.55
2022-11-05T20:30:51.334Z,14.54
2022-11-05T20:32:22.997Z,14.53
2022-11-05T20:33:55.080Z,14.50
2022-11-05T20:35:27.096Z,14.48